createdAt,value
2023-02-01T00:01:28.702Z,98629.16
2023-02-01T00:03:57.098Z,98629.58
2023-02-01T00:06:26.708Z,98628.63
2023-02-01T00:08:55.619Z,98627.13
2023-02-01T00:11:24.105Z,98628.05
2023-02-01T00:13:52.496Z,98622.77
2023-02-01T00:16:25.425Z,98620.23
2023-02-01T00:18:58.466Z,98617.33
2023-02-01T00:21:26.760Z,98617.36
2023-02-01T00:23:55.173Z,98615.85
2023-02-01T00:26:32.676Z,98615.00
2023-02-01T00:29:02.368Z,98612.98
2023-02-01T00:31:30.836Z,98609.05
2023-02-01T00:33:59.173Z,98610.27
2023-02-01T00:36:27.439Z,98609.42
2023-02-01T00:38:56.120Z,98607.38
2023-02-01T00:41:24.643Z,98612.89
2023-02-01T00:43:53.206Z,98612.73
2023-02-01T00:46:22.672Z,98617.23
2023-02-01T00:48:51.312Z,98617.11
2023-02-01T00:51:21.936Z,98618.84
2023-02-01T00:53:50.333Z,98615.27
2023-02-01T00:56:18.410Z,98615.95
2023-02-01T00:58:46.579Z,98614.77
2023-02-01T01:01:22.707Z,98615.48
2023-02-01T01:03:58.225Z,98617.21
2023-02-01T01:06:29.372Z,98617.05
2023-02-01T01:08:58.717Z,98619.30
2023-02-01T01:11:29.551Z,98623.77
2023-02-01T01:13:58.331Z,98626.19
2023-02-01T01:16:27.803Z,98626.19
2023-02-01T01:18:57.844Z,98631.39
2023-02-01T01:21:26.303Z,98628.30
2023-02-01T01:23:54.467Z,98630.02
2023-02-01T01:26:27.010Z,98633.29
2023-02-01T01:28:58.972Z,98630.85
2023-02-01T01:31:27.714Z,98626.86
2023-02-01T01:33:58.572Z,98629.39
2023-02-01T01:36:27.727Z,98624.88
2023-02-01T01:38:55.915Z,98619.86
2023-02-01T01:41:30.845Z,98618.46
2023-02-01T01:44:07.416Z,98618.11
2023-02-01T01:46:37.942Z,98620.34
2023-02-01T01:49:18.226Z,98618.95
2023-02-01T01:51:52.554Z,98615.00
2023-02-01T01:54:22.407Z,98608.62
2023-02-01T01:56:52.745Z,98604.85
2023-02-01T01:59:22.991Z,98600.41
2023-02-01T02:01:51.487Z,98597.17
2023-02-01T02:04:22.073Z,98597.52
2023-02-01T02:06:56.681Z,98594.58
2023-02-01T02:09:24.779Z,98594.35
2023-02-01T02:11:53.251Z,98589.86
2023-02-01T02:14:22.532Z,98585.69
2023-02-01T02:17:01.240Z,98584.80
2023-02-01T02:19:51.895Z,98584.58
2023-02-01T02:22:41.547Z,98577.66
2023-02-01T02:25:44.337Z,98576.76
2023-02-01T02:28:23.473Z,98573.98
2023-02-01T02:31:01.463Z,98574.82
2023-02-01T02:34:07.101Z,98571.73
2023-02-01T02:37:01.002Z,98571.38
2023-02-01T02:39:38.523Z,98568.92
2023-02-01T02:43:03.956Z,98569.06
2023-02-01T02:46:10.672Z,98571.95
2023-02-01T02:48:44.965Z,98574.89
2023-02-01T02:51:55.062Z,98574.77
2023-02-01T02:54:44.027Z,98575.08
2023-02-01T02:57:49.264Z,98572.50
2023-02-01T03:00:38.049Z,98571.30
2023-02-01T03:03:25.742Z,98573.37
2023-02-01T03:05:54.281Z,98571.65
2023-02-01T03:08:29.626Z,98574.06
2023-02-01T03:11:05.428Z,98573.36
2023-02-01T03:13:52.579Z,98573.34
2023-02-01T03:16:28.720Z,98570.09
2023-02-01T03:19:06.454Z,98572.64
2023-02-01T03:22:10.283Z,98575.92
2023-02-01T03:24:49.185Z,98573.95
2023-02-01T03:27:25.360Z,98571.09
2023-02-01T03:30:23.295Z,98567.64
2023-02-01T03:33:03.112Z,98567.25
2023-02-01T03:35:40.965Z,98566.20
2023-02-01T03:38:12.510Z,98565.52
2023-02-01T03:40:40.912Z,98565.34
2023-02-01T03:43:10.349Z,98568.42
2023-02-01T03:45:43.519Z,98567.72
2023-02-01T03:48:12.311Z,98566.19
2023-02-01T03:50:44.207Z,98564.83
2023-02-01T03:53:15.912Z,98562.05
2023-02-01T03:55:44.920Z,98561.19
2023-02-01T03:58:20.665Z,98557.05
2023-02-01T04:00:58.921Z,98558.93
2023-02-01T04:03:27.811Z,98557.40
2023-02-01T04:05:56.040Z,98554.29
2023-02-01T04:08:27.125Z,98558.91
2023-02-01T04:10:55.229Z,98563.21
2023-02-01T04:13:24.607Z,98564.93
2023-02-01T04:15:53.031Z,98562.88
2023-02-01T04:18:21.421Z,98562.33
2023-02-01T04:20:50.142Z,98565.76
2023-02-01T04:23:18.209Z,98565.42
2023-02-01T04:25:46.347Z,98569.25
2023-02-01T04:28:15.374Z,98570.12
2023-02-01T04:30:43.951Z,98571.00
2023-02-01T04:33:15.091Z,98568.60
2023-02-01T04:35:43.493Z,98569.67
2023-02-01T04:38:11.797Z,98571.21
2023-02-01T04:40:40.513Z,98571.02
2023-02-01T04:43:09.202Z,98571.86
2023-02-01T04:45:37.588Z,98570.80
2023-02-01T04:48:06.096Z,98567.72
2023-02-01T04:50:34.365Z,98571.67
2023-02-01T04:53:02.439Z,98570.83
2023-02-01T04:55:40.026Z,98567.88
2023-02-01T04:58:18.511Z,98570.92
2023-02-01T05:00:48.745Z,98573.65
2023-02-01T05:03:20.963Z,98571.39
2023-02-01T05:05:51.037Z,98569.84
2023-02-01T05:08:19.200Z,98567.77
2023-02-01T05:10:49.173Z,98566.58
2023-02-01T05:13:35.994Z,98568.83
2023-02-01T05:16:04.763Z,98571.02
2023-02-01T05:18:33.047Z,98564.98
2023-02-01T05:21:02.104Z,98567.52
2023-02-01T05:23:30.325Z,98564.23
2023-02-01T05:26:04.786Z,98561.33
2023-02-01T05:28:33.140Z,98558.92
2023-02-01T05:31:01.852Z,98557.45
2023-02-01T05:33:30.103Z,98556.61
2023-02-01T05:35:58.208Z,98554.75
2023-02-01T05:38:26.715Z,98556.51
2023-02-01T05:40:56.016Z,98554.28
2023-02-01T05:43:26.341Z,98562.05
2023-02-01T05:45:55.251Z,98557.08
2023-02-01T05:48:23.414Z,98557.36
2023-02-01T05:50:51.734Z,98558.36
2023-02-01T05:53:20.041Z,98562.11
2023-02-01T05:55:52.035Z,98561.25
2023-02-01T05:58:24.665Z,98557.80
2023-02-01T06:00:53.788Z,98561.41
2023-02-01T06:03:24.967Z,98562.27
2023-02-01T06:05:56.257Z,98559.19
2023-02-01T06:08:30.623Z,98556.30
2023-02-01T06:11:03.655Z,98555.95
2023-02-01T06:13:34.438Z,98557.14
2023-02-01T06:16:11.558Z,98558.99
2023-02-01T06:18:39.966Z,98559.66
2023-02-01T06:21:09.535Z,98558.73
2023-02-01T06:23:40.350Z,98555.23
2023-02-01T06:26:13.714Z,98555.55
2023-02-01T06:28:41.924Z,98557.77
2023-02-01T06:31:10.263Z,98560.84
2023-02-01T06:33:38.863Z,98559.92
2023-02-01T06:36:16.267Z,98559.35
2023-02-01T06:38:51.221Z,98557.70
2023-02-01T06:41:24.534Z,98554.70
2023-02-01T06:43:52.960Z,98557.21
2023-02-01T06:46:25.877Z,98558.36
2023-02-01T06:48:55.782Z,98559.72
2023-02-01T06:51:26.474Z,98563.31
2023-02-01T06:53:54.726Z,98559.70
2023-02-01T06:56:23.037Z,98559.09
2023-02-01T06:58:57.645Z,98561.56
2023-02-01T07:01:28.001Z,98563.55
2023-02-01T07:04:02.526Z,98558.20
2023-02-01T07:06:34.989Z,98557.48
2023-02-01T07:09:03.459Z,98557.45
2023-02-01T07:11:34.261Z,98552.63
2023-02-01T07:14:06.228Z,98549.41
2023-02-01T07:16:34.990Z,98549.77
2023-02-01T07:19:03.281Z,98549.05
2023-02-01T07:21:31.586Z,98547.80
2023-02-01T07:24:04.661Z,98541.05
2023-02-01T07:26:33.831Z,98530.25
2023-02-01T07:29:04.059Z,98521.79
2023-02-01T07:31:32.452Z,98520.27
2023-02-01T07:34:04.128Z,98518.03
2023-02-01T07:36:39.052Z,98514.77
2023-02-01T07:39:14.450Z,98515.30
2023-02-01T07:41:47.632Z,98520.19
2023-02-01T07:44:24.409Z,98516.33
2023-02-01T07:46:52.769Z,98515.90
2023-02-01T07:52:23.195Z,98514.30
2023-02-01T07:54:53.735Z,98513.52
2023-02-01T07:57:24.773Z,98511.98
2023-02-01T08:00:19.582Z,98513.48
2023-02-01T08:02:47.831Z,98509.83
2023-02-01T08:05:22.601Z,98507.94
2023-02-01T08:08:02.054Z,98503.38
2023-02-01T08:10:34.686Z,98497.86
2023-02-01T08:13:06.123Z,98497.69
2023-02-01T08:15:35.707Z,98501.61
2023-02-01T08:18:06.739Z,98498.87
2023-02-01T08:20:40.814Z,98498.46
2023-02-01T08:23:11.717Z,98495.56
2023-02-01T08:25:43.205Z,98495.78
2023-02-01T08:28:17.313Z,98499.45
2023-02-01T08:30:48.008Z,98491.73
2023-02-01T08:33:18.816Z,98493.36
2023-02-01T08:35:50.101Z,98492.27
2023-02-01T08:38:23.538Z,98489.70
2023-02-01T08:41:05.539Z,98487.14
2023-02-01T08:43:39.242Z,98485.40
2023-02-01T08:46:13.093Z,98482.13
2023-02-01T08:48:44.988Z,98478.58
2023-02-01T08:51:17.179Z,98475.46
2023-02-01T08:53:45.517Z,98471.02
2023-02-01T08:56:17.726Z,98469.42
2023-02-01T08:58:50.785Z,98464.39
2023-02-01T09:01:19.167Z,98458.11
2023-02-01T09:03:47.516Z,98455.11
2023-02-01T09:06:19.176Z,98455.16
2023-02-01T09:08:54.785Z,98450.94
2023-02-01T09:11:27.941Z,98447.92
2023-02-01T09:13:57.480Z,98442.66
2023-02-01T09:16:26.077Z,98439.87
2023-02-01T09:19:21.837Z,98435.77
2023-02-01T09:21:46.064Z,98434.69
2023-02-01T09:24:17.322Z,98434.51
2023-02-01T09:26:45.724Z,98429.35
2023-02-01T09:29:19.233Z,98422.27
2023-02-01T09:32:02.950Z,98419.76
2023-02-01T09:34:32.916Z,98412.11
2023-02-01T09:37:01.973Z,98412.61
2023-02-01T09:39:31.274Z,98408.63
2023-02-01T09:42:30.329Z,98408.75
2023-02-01T09:45:29.298Z,98404.36
2023-02-01T09:48:05.133Z,98403.27
2023-02-01T09:50:48.064Z,98401.52
2023-02-01T09:53:43.727Z,98395.44
2023-02-01T09:56:23.916Z,98397.33
2023-02-01T09:59:21.673Z,98391.59
2023-02-01T10:02:01.380Z,98390.40
2023-02-01T10:04:30.731Z,98393.56
2023-02-01T10:07:20.188Z,98391.76
2023-02-01T10:10:10.220Z,98386.32
2023-02-01T10:13:24.268Z,98383.08
2023-02-01T10:16:18.023Z,98378.90
2023-02-01T10:18:53.047Z,98377.73
2023-02-01T10:21:24.297Z,98376.13
2023-02-01T10:24:18.068Z,98372.25
2023-02-01T10:26:55.481Z,98365.30
2023-02-01T10:29:25.425Z,98365.29
2023-02-01T10:31:53.717Z,98363.77
2023-02-01T10:34:24.117Z,98362.45
2023-02-01T10:37:01.462Z,98362.45
2023-02-01T10:39:29.707Z,98356.70
2023-02-01T10:41:58.449Z,98356.42
2023-02-01T10:44:28.893Z,98354.77
2023-02-01T10:46:57.087Z,98346.52
2023-02-01T10:49:35.016Z,98346.14
2023-02-01T10:52:10.800Z,98348.40
2023-02-01T10:54:39.593Z,98340.89
2023-02-01T10:57:09.704Z,98343.51
2023-02-01T10:59:38.675Z,98343.48
2023-02-01T11:02:35.720Z,98340.83
2023-02-01T11:05:13.281Z,98341.40
2023-02-01T11:08:00.884Z,98337.98
2023-02-01T11:10:42.905Z,98332.02
2023-02-01T11:13:17.424Z,98333.52
2023-02-01T11:15:47.115Z,98336.73
2023-02-01T11:18:19.981Z,98331.23
2023-02-01T11:20:50.583Z,98333.38
2023-02-01T11:23:44.356Z,98332.16
2023-02-01T11:26:24.379Z,98322.98
2023-02-01T11:29:06.205Z,98319.52
2023-02-01T11:31:34.532Z,98320.80
2023-02-01T11:34:14.384Z,98318.23
2023-02-01T11:36:42.955Z,98317.48
2023-02-01T11:39:14.174Z,98311.42
2023-02-01T11:42:07.561Z,98311.06
2023-02-01T11:44:39.022Z,98307.02
2023-02-01T11:47:40.630Z,98308.92
2023-02-01T11:50:20.049Z,98306.39
2023-02-01T11:53:09.099Z,98303.06
2023-02-01T11:56:05.253Z,98303.12
2023-02-01T11:58:51.520Z,98298.12
2023-02-01T12:01:44.929Z,98299.74
2023-02-01T12:04:31.701Z,98299.36
2023-02-01T12:07:17.711Z,98296.05
2023-02-01T12:10:31.580Z,98294.90
2023-02-01T12:13:20.312Z,98294.52
2023-02-01T12:15:55.355Z,98290.64
2023-02-01T12:18:35.864Z,98290.48
2023-02-01T12:21:31.964Z,98288.89
2023-02-01T12:24:24.737Z,98285.03
2023-02-01T12:27:30.540Z,98283.58
2023-02-01T12:30:29.565Z,98281.69
2023-02-01T12:33:36.110Z,98281.98
2023-02-01T12:36:08.121Z,98278.79
2023-02-01T12:39:01.325Z,98278.73
2023-02-01T12:41:43.764Z,98281.48
2023-02-01T12:44:32.642Z,98280.95
2023-02-01T12:47:13.206Z,98275.65
2023-02-01T12:49:44.743Z,98275.56
2023-02-01T12:52:19.829Z,98276.37
2023-02-01T12:54:53.027Z,98274.96
2023-02-01T12:57:28.041Z,98275.89
2023-02-01T13:00:11.188Z,98276.73
2023-02-01T13:02:51.492Z,98273.81
2023-02-01T13:05:25.551Z,98279.58
2023-02-01T13:08:05.795Z,98274.98
2023-02-01T13:10:51.671Z,98272.41
2023-02-01T13:13:46.282Z,98276.42
2023-02-01T13:16:33.767Z,98280.08
2023-02-01T13:22:08.978Z,98273.71
2023-02-01T13:24:51.675Z,98277.64
2023-02-01T13:27:24.020Z,98275.17
2023-02-01T13:30:12.878Z,98272.63
2023-02-01T13:33:53.267Z,98271.14
2023-02-01T13:36:01.859Z,98275.04
2023-02-01T13:38:38.060Z,98274.17
2023-02-01T13:41:16.407Z,98274.83
2023-02-01T13:43:53.526Z,98276.48
2023-02-01T13:46:29.885Z,98274.95
2023-02-01T13:49:01.459Z,98275.30
2023-02-01T13:51:47.127Z,98278.00
2023-02-01T13:54:36.325Z,98282.45
2023-02-01T13:57:06.009Z,98283.41
2023-02-01T13:59:41.769Z,98279.09
2023-02-01T14:02:41.510Z,98281.80
2023-02-01T14:05:24.674Z,98280.45
2023-02-01T14:08:05.636Z,98278.97
2023-02-01T14:10:50.554Z,98283.62
2023-02-01T14:13:38.709Z,98282.91
2023-02-01T14:16:17.276Z,98284.32
2023-02-01T14:18:47.431Z,98285.70
2023-02-01T14:21:29.469Z,98287.44
2023-02-01T14:24:11.011Z,98290.04
2023-02-01T14:26:39.089Z,98291.11
2023-02-01T14:29:20.717Z,98292.97
2023-02-01T14:32:18.203Z,98295.14
2023-02-01T14:34:49.399Z,98301.09
2023-02-01T14:37:17.502Z,98302.52
2023-02-01T14:39:45.547Z,98306.23
2023-02-01T14:42:27.196Z,98311.17
2023-02-01T14:44:58.711Z,98306.59
2023-02-01T14:47:30.040Z,98313.21
2023-02-01T14:50:03.916Z,98312.89
2023-02-01T14:52:35.430Z,98311.79
2023-02-01T14:55:08.317Z,98310.63
2023-02-01T14:57:38.689Z,98309.48
2023-02-01T15:00:18.572Z,98308.89
2023-02-01T15:02:50.575Z,98311.08
2023-02-01T15:05:31.798Z,98316.00
2023-02-01T15:08:14.921Z,98321.91
2023-02-01T15:10:45.819Z,98328.37
2023-02-01T15:13:24.779Z,98327.33
2023-02-01T15:16:05.847Z,98330.15
2023-02-01T15:18:33.983Z,98332.86
2023-02-01T15:21:26.374Z,98337.29
2023-02-01T15:24:11.650Z,98338.77
2023-02-01T15:26:40.114Z,98340.43
2023-02-01T15:29:12.455Z,98339.88
2023-02-01T15:31:48.496Z,98340.67
2023-02-01T15:34:17.685Z,98339.07
2023-02-01T15:37:02.130Z,98341.27
2023-02-01T15:39:32.460Z,98344.35
2023-02-01T15:42:19.858Z,98345.39
2023-02-01T15:44:47.961Z,98346.77
2023-02-01T15:47:21.333Z,98344.53
2023-02-01T15:49:52.819Z,98348.48
2023-02-01T15:52:41.256Z,98347.10
2023-02-01T15:55:18.181Z,98350.89
2023-02-01T15:57:49.248Z,98350.73
2023-02-01T16:00:28.481Z,98353.64
2023-02-01T16:03:00.585Z,98350.72
2023-02-01T16:05:39.692Z,98350.90
2023-02-01T16:08:24.477Z,98355.73
2023-02-01T16:11:03.164Z,98361.05
2023-02-01T16:13:32.102Z,98361.70
2023-02-01T16:16:00.528Z,98363.57
2023-02-01T16:18:29.305Z,98363.69
2023-02-01T16:20:57.527Z,98360.71
2023-02-01T16:23:26.167Z,98363.78
2023-02-01T16:25:54.567Z,98364.23
2023-02-01T16:28:23.246Z,98360.19
2023-02-01T16:30:52.374Z,98365.13
2023-02-01T16:33:23.404Z,98360.80
2023-02-01T16:35:51.981Z,98365.80
2023-02-01T16:38:26.261Z,98370.46
2023-02-01T16:40:58.757Z,98364.10
2023-02-01T16:43:30.831Z,98365.84
2023-02-01T16:46:01.080Z,98361.51
2023-02-01T16:48:39.003Z,98365.80
2023-02-01T16:51:11.874Z,98365.11
2023-02-01T16:53:53.949Z,98364.27
2023-02-01T16:56:25.238Z,98365.16
2023-02-01T16:58:59.452Z,98368.63
2023-02-01T17:01:33.720Z,98366.89
2023-02-01T17:04:06.990Z,98369.78
2023-02-01T17:06:40.320Z,98366.63
2023-02-01T17:09:10.771Z,98367.62
2023-02-01T17:11:40.028Z,98366.60
2023-02-01T17:14:19.386Z,98367.45
2023-02-01T17:16:48.882Z,98369.34
2023-02-01T17:19:19.183Z,98371.07
2023-02-01T17:21:50.657Z,98377.28
2023-02-01T17:24:20.572Z,98377.10
2023-02-01T17:26:54.075Z,98381.55
2023-02-01T17:29:24.637Z,98381.32
2023-02-01T17:31:55.153Z,98379.05
2023-02-01T17:34:23.661Z,98382.13
2023-02-01T17:36:52.464Z,98382.84
2023-02-01T17:39:39.278Z,98382.88
2023-02-01T17:42:10.786Z,98383.90
2023-02-01T17:44:40.165Z,98378.38
2023-02-01T17:47:08.490Z,98380.81
2023-02-01T17:49:38.932Z,98379.15
2023-02-01T17:52:17.681Z,98375.93
2023-02-01T17:57:39.440Z,98369.09
2023-02-01T18:00:09.473Z,98374.13
2023-02-01T18:02:41.100Z,98369.77
2023-02-01T18:05:27.708Z,98369.16
2023-02-01T18:07:59.241Z,98372.36
2023-02-01T18:10:27.952Z,98374.84
2023-02-01T18:12:57.668Z,98373.66
2023-02-01T18:15:26.226Z,98375.35
2023-02-01T18:17:54.721Z,98377.71
2023-02-01T18:20:24.465Z,98375.76
2023-02-01T18:22:52.885Z,98377.40
2023-02-01T18:25:23.028Z,98376.42
2023-02-01T18:27:53.296Z,98376.86
2023-02-01T18:30:23.650Z,98376.80
2023-02-01T18:32:52.194Z,98379.17
2023-02-01T18:35:25.244Z,98379.73
2023-02-01T18:37:55.190Z,98385.33
2023-02-01T18:40:33.141Z,98383.54
2023-02-01T18:43:01.577Z,98384.51
2023-02-01T18:45:40.427Z,98385.45
2023-02-01T18:48:10.149Z,98382.76
2023-02-01T18:50:40.600Z,98382.29
2023-02-01T18:53:13.027Z,98379.72
2023-02-01T18:55:41.615Z,98380.09
2023-02-01T18:58:12.303Z,98378.05
2023-02-01T19:00:40.474Z,98377.15
2023-02-01T19:03:13.232Z,98378.99
2023-02-01T19:05:41.731Z,98379.77
2023-02-01T19:08:11.961Z,98380.41
2023-02-01T19:10:44.758Z,98380.05
2023-02-01T19:13:16.020Z,98380.84
2023-02-01T19:15:44.348Z,98381.66
2023-02-01T19:18:12.524Z,98380.23
2023-02-01T19:20:41.475Z,98376.39
2023-02-01T19:23:09.696Z,98378.63
2023-02-01T19:25:37.979Z,98373.80
2023-02-01T19:28:06.693Z,98374.80
2023-02-01T19:30:35.116Z,98374.95
2023-02-01T19:33:04.771Z,98372.52
2023-02-01T19:35:33.361Z,98373.16
2023-02-01T19:38:01.838Z,98369.54
2023-02-01T19:40:30.169Z,98371.60
2023-02-01T19:42:58.252Z,98369.92
2023-02-01T19:45:26.652Z,98365.88
2023-02-01T19:47:57.911Z,98366.98
2023-02-01T19:50:26.190Z,98366.64
2023-02-01T19:52:56.764Z,98366.98
2023-02-01T19:55:28.504Z,98367.15
2023-02-01T20:00:59.711Z,98369.05
2023-02-01T20:03:31.391Z,98367.80
2023-02-01T20:06:03.645Z,98369.02
2023-02-01T20:08:36.808Z,98371.30
2023-02-01T20:11:09.449Z,98367.04
2023-02-01T20:13:41.332Z,98367.95
2023-02-01T20:16:11.394Z,98368.00
2023-02-01T20:18:40.136Z,98363.70
2023-02-01T20:21:08.341Z,98365.23
2023-02-01T20:23:36.939Z,98361.27
2023-02-01T20:26:07.977Z,98363.06
2023-02-01T20:28:36.579Z,98364.00
2023-02-01T20:31:04.980Z,98360.97
2023-02-01T20:33:33.492Z,98359.30
2023-02-01T20:36:01.654Z,98356.39
2023-02-01T20:38:30.227Z,98356.19
2023-02-01T20:41:05.984Z,98358.23
2023-02-01T20:43:34.452Z,98361.98
2023-02-01T20:46:03.135Z,98360.05
2023-02-01T20:48:31.811Z,98359.11
2023-02-01T20:51:00.653Z,98361.70
2023-02-01T20:53:28.939Z,98361.66
2023-02-01T20:55:58.442Z,98360.41
2023-02-01T20:58:26.986Z,98365.88
2023-02-01T21:00:55.167Z,98368.25
2023-02-01T21:03:24.027Z,98367.27
2023-02-01T21:05:53.906Z,98367.19
2023-02-01T21:08:23.299Z,98369.48
2023-02-01T21:11:02.069Z,98371.95
2023-02-01T21:13:31.839Z,98366.36
2023-02-01T21:16:00.019Z,98365.09
2023-02-01T21:18:29.134Z,98361.59
2023-02-01T21:20:58.313Z,98365.38
2023-02-01T21:23:27.351Z,98365.41
2023-02-01T21:25:55.422Z,98370.34
2023-02-01T21:28:23.479Z,98374.04
2023-02-01T21:30:51.585Z,98373.25
2023-02-01T21:33:20.347Z,98372.61
2023-02-01T21:35:50.693Z,98372.63
2023-02-01T21:38:18.820Z,98372.42
2023-02-01T21:41:09.533Z,98373.57
2023-02-01T21:43:38.500Z,98376.98
2023-02-01T21:46:08.492Z,98375.91
2023-02-01T21:49:04.485Z,98376.77
2023-02-01T21:51:27.393Z,98375.19
2023-02-01T21:53:56.381Z,98378.63
2023-02-01T21:56:24.587Z,98379.50
2023-02-01T21:58:52.778Z,98379.68
2023-02-01T22:01:21.070Z,98384.52
2023-02-01T22:03:49.490Z,98380.27
2023-02-01T22:06:27.700Z,98382.21
2023-02-01T22:08:56.479Z,98382.46
2023-02-01T22:11:25.336Z,98381.47
2023-02-01T22:13:53.695Z,98381.67
2023-02-01T22:16:22.469Z,98379.64
2023-02-01T22:18:51.441Z,98383.77
2023-02-01T22:21:20.228Z,98380.09
2023-02-01T22:23:54.439Z,98381.77
2023-02-01T22:26:22.876Z,98381.56
2023-02-01T22:28:51.201Z,98383.35
2023-02-01T22:31:19.759Z,98376.17
2023-02-01T22:33:49.317Z,98375.39
2023-02-01T22:36:18.057Z,98376.12
2023-02-01T22:38:46.883Z,98375.95
2023-02-01T22:41:14.960Z,98375.42
2023-02-01T22:43:43.440Z,98380.05
2023-02-01T22:46:14.046Z,98383.12
2023-02-01T22:48:43.175Z,98384.25
2023-02-01T22:51:23.894Z,98382.64
2023-02-01T22:53:58.278Z,98382.98
2023-02-01T22:56:37.394Z,98386.53
2023-02-01T22:59:06.999Z,98383.52
2023-02-01T23:01:35.282Z,98383.66
2023-02-01T23:04:11.828Z,98381.80
2023-02-01T23:06:40.844Z,98388.00
2023-02-01T23:09:19.172Z,98390.84
2023-02-01T23:11:47.562Z,98387.15
2023-02-01T23:14:16.245Z,98383.61
2023-02-01T23:16:45.351Z,98384.57
2023-02-01T23:19:13.568Z,98384.51
2023-02-01T23:21:42.215Z,98376.36
2023-02-01T23:24:11.335Z,98372.21
2023-02-01T23:26:39.985Z,98373.83
2023-02-01T23:29:10.049Z,98372.50
2023-02-01T23:31:38.334Z,98372.67
2023-02-01T23:34:06.697Z,98373.52
2023-02-01T23:36:35.598Z,98372.66
2023-02-01T23:39:03.744Z,98374.06
2023-02-01T23:41:33.802Z,98371.86
2023-02-01T23:44:02.062Z,98370.48
2023-02-01T23:46:35.835Z,98367.70
2023-02-01T23:49:05.726Z,98370.95
2023-02-01T23:51:34.508Z,98373.91
2023-02-01T23:54:02.907Z,98378.23
2023-02-01T23:56:34.198Z,98382.20
2023-02-01T23:59:04.069Z,98378.26
